Aérodrome :
LOGIN :

S'inscrire | Disclaimer

   EN    FR    IT 

 










Légende :    VFR   VFR Marginal   IFR   IFR Intensif   IFR Très Intensif
Visi : 
Plafond : 
>= 8 km
>= 3000ft
5 à 8 km
1000 à 3000 ft
1500m à 5 km
500 à 1000 ft
800 à 1500m
200 à 500 ft
< 800m
< 200 ft
Symboles :   Orages  Brouillard  Fortes neiges  Fortes précipitations  Vent > 20 kt
SIGMETs :   Divers  Orages  Givrage  Turbulence  Onde Orograph.  Cendres Volcan.






- Altitude de l'aérodrome : 233 ft
- Code IATA : REU


LERS - Reus Tarragona

DERNIER METAR :
  • 010900Z 04006KT 020V080 9999 FEW030 SCT037 OVC045 12/07 Q1026

METARs EXPIRÉS :
  • 010830Z 05007KT 9999 FEW030 OVC040 12/07 Q1026
  • 010800Z 05008KT 020V080 9999 BKN038 BKN046 12/07 Q1026
  • 010730Z 04006KT 9999 BKN042 BKN049 12/07 Q1026
  • 010700Z 04006KT 9999 OVC048 12/07 Q1025
  • 010630Z 04006KT 9999 OVC048 12/07 Q1025

TAF TAF LERS
Valide du 01 à 09h jusqu'au 02 à 09h UTC


010800Z 0109/0209 04008KT 9999 SCT020 BKN030 TX16/0112Z TN09/0206Z
BECMG 0109/0111 09010KT
BECMG 0118/0120 03007KT



MET'MAP, la Météo Aéronautique d'un coup d'oeil ! - Copyright ORBIFLY Décembre 2007 - Disclaimer

ORBIFLY MET'MAP TEAM :

Programmation & Développement : Alexandra Zaïnal
Sur une idée originale de : Baudouin d'Aumeries
Assistance à la programmation : Marc-Olivier Méhu
Soutien technique & logistique : Manuel Goepfert

Contact : metmap@orbifly.com




SOURCES & CREDITS :

   NOAA